sensor_id;sensor_type;location;lat;lon;timestamp;temperature;humidity
41678;DHT22;27364;49.026;8.712;2023-04-01T00:01:19;10.30;99.90
41678;DHT22;27364;49.026;8.712;2023-04-01T00:03:45;10.30;99.90
41678;DHT22;27364;49.026;8.712;2023-04-01T00:06:15;10.20;99.90
41678;DHT22;27364;49.026;8.712;2023-04-01T00:08:41;10.20;99.90
41678;DHT22;27364;49.026;8.712;2023-04-01T00:11:07;10.20;99.90
41678;DHT22;27364;49.026;8.712;2023-04-01T00:13:33;10.20;99.90
41678;DHT22;27364;49.026;8.712;2023-04-01T00:15:58;10.20;99.90
41678;DHT22;27364;49.026;8.712;2023-04-01T00:18:25;10.10;99.90
41678;DHT22;27364;49.026;8.712;2023-04-01T00:20:51;10.10;99.90
41678;DHT22;27364;49.026;8.712;2023-04-01T00:23:17;10.20;99.90
41678;DHT22;27364;49.026;8.712;2023-04-01T00:25:43;10.20;99.90
41678;DHT22;27364;49.026;8.712;2023-04-01T00:28:10;10.10;99.90
41678;DHT22;27364;49.026;8.712;2023-04-01T00:30:37;10.20;99.90
41678;DHT22;27364;49.026;8.712;2023-04-01T00:33:03;10.10;99.90
41678;DHT22;27364;49.026;8.712;2023-04-01T00:35:28;10.10;99.90
41678;DHT22;27364;49.026;8.712;2023-04-01T00:37:55;10.10;99.90
41678;DHT22;27364;49.026;8.712;2023-04-01T00:40:42;10.10;99.90
41678;DHT22;27364;49.026;8.712;2023-04-01T00:43:15;10.20;99.90
41678;DHT22;27364;49.026;8.712;2023-04-01T00:45:43;10.20;99.90
41678;DHT22;27364;49.026;8.712;2023-04-01T00:48:29;10.20;99.90
41678;DHT22;27364;49.026;8.712;2023-04-01T00:51:06;10.20;99.90
41678;DHT22;27364;49.026;8.712;2023-04-01T00:53:34;10.20;99.90
41678;DHT22;27364;49.026;8.712;2023-04-01T00:58:40;10.20;99.90
41678;DHT22;27364;49.026;8.712;2023-04-01T01:01:07;10.20;99.90
41678;DHT22;27364;49.026;8.712;2023-04-01T01:03:33;10.20;99.90
41678;DHT22;27364;49.026;8.712;2023-04-01T01:14:52;10.10;99.90
41678;DHT22;27364;49.026;8.712;2023-04-01T01:17:22;10.10;99.90
41678;DHT22;27364;49.026;8.712;2023-04-01T01:29:01;10.20;99.90
41678;DHT22;27364;49.026;8.712;2023-04-01T01:37:21;10.20;99.90
41678;DHT22;27364;49.026;8.712;2023-04-01T01:39:54;10.20;99.90
41678;DHT22;27364;49.026;8.712;2023-04-01T01:42:22;10.20;99.90
41678;DHT22;27364;49.026;8.712;2023-04-01T01:44:50;10.10;99.90
41678;DHT22;27364;49.026;8.712;2023-04-01T01:47:18;10.10;99.90
41678;DHT22;27364;49.026;8.712;2023-04-01T01:49:45;10.10;99.90
41678;DHT22;27364;49.026;8.712;2023-04-01T01:52:12;10.10;99.90
41678;DHT22;27364;49.026;8.712;2023-04-01T01:55:27;10.10;99.90
41678;DHT22;27364;49.026;8.712;2023-04-01T01:57:55;10.10;99.90
41678;DHT22;27364;49.026;8.712;2023-04-01T02:00:21;10.10;99.90
41678;DHT22;27364;49.026;8.712;2023-04-01T02:02:48;10.00;99.90
41678;DHT22;27364;49.026;8.712;2023-04-01T02:05:18;10.00;99.90
41678;DHT22;27364;49.026;8.712;2023-04-01T02:07:51;9.90;99.90
41678;DHT22;27364;49.026;8.712;2023-04-01T02:10:20;9.80;99.90
41678;DHT22;27364;49.026;8.712;2023-04-01T02:12:47;9.90;99.90
41678;DHT22;27364;49.026;8.712;2023-04-01T02:15:15;9.90;99.90
41678;DHT22;27364;49.026;8.712;2023-04-01T02:17:44;9.90;99.90
41678;DHT22;27364;49.026;8.712;2023-04-01T02:20:17;9.90;99.90
41678;DHT22;27364;49.026;8.712;2023-04-01T02:22:50;9.80;99.90
41678;DHT22;27364;49.026;8.712;2023-04-01T02:25:26;9.80;99.90
41678;DHT22;27364;49.026;8.712;2023-04-01T02:27:53;9.80;99.90
41678;DHT22;27364;49.026;8.712;2023-04-01T02:30:21;9.80;99.90
41678;DHT22;27364;49.026;8.712;2023-04-01T02:32:47;9.80;99.90
41678;DHT22;27364;49.026;8.712;2023-04-01T02:35:15;9.90;99.90
41678;DHT22;27364;49.026;8.712;2023-04-01T02:37:42;9.90;99.90
41678;DHT22;27364;49.026;8.712;2023-04-01T02:40:11;9.90;99.90
41678;DHT22;27364;49.026;8.712;2023-04-01T02:42:37;9.90;99.90
41678;DHT22;27364;49.026;8.712;2023-04-01T02:45:04;9.90;99.90
41678;DHT22;27364;49.026;8.712;2023-04-01T02:47:30;9.90;99.90
41678;DHT22;27364;49.026;8.712;2023-04-01T02:49:56;9.90;99.90
41678;DHT22;27364;49.026;8.712;2023-04-01T02:52:30;9.90;99.90
41678;DHT22;27364;49.026;8.712;2023-04-01T02:54:56;10.00;99.90
41678;DHT22;27364;49.026;8.712;2023-04-01T02:57:22;9.90;99.90
41678;DHT22;27364;49.026;8.712;2023-04-01T02:59:48;9.90;99.90
41678;DHT22;27364;49.026;8.712;2023-04-01T03:02:14;9.90;99.90
41678;DHT22;27364;49.026;8.712;2023-04-01T03:04:40;9.90;99.90
41678;DHT22;27364;49.026;8.712;2023-04-01T03:07:06;9.90;99.90
41678;DHT22;27364;49.026;8.712;2023-04-01T03:09:32;9.80;99.90
41678;DHT22;27364;49.026;8.712;2023-04-01T03:11:57;9.70;99.90
41678;DHT22;27364;49.026;8.712;2023-04-01T03:14:23;9.80;99.90
41678;DHT22;27364;49.026;8.712;2023-04-01T03:16:49;9.90;99.90
41678;DHT22;27364;49.026;8.712;2023-04-01T03:19:14;9.80;99.90
41678;DHT22;27364;49.026;8.712;2023-04-01T03:21:40;9.90;99.90
41678;DHT22;27364;49.026;8.712;2023-04-01T03:24:06;9.90;99.90
41678;DHT22;27364;49.026;8.712;2023-04-01T03:26:31;9.90;99.90
41678;DHT22;27364;49.026;8.712;2023-04-01T03:28:57;9.80;99.90
41678;DHT22;27364;49.026;8.712;2023-04-01T03:31:23;9.80;99.90
41678;DHT22;27364;49.026;8.712;2023-04-01T03:33:49;9.80;99.90
41678;DHT22;27364;49.026;8.712;2023-04-01T03:36:15;9.80;99.90
41678;DHT22;27364;49.026;8.712;2023-04-01T03:38:41;9.70;99.90
41678;DHT22;27364;49.026;8.712;2023-04-01T03:41:11;9.70;99.90
41678;DHT22;27364;49.026;8.712;2023-04-01T03:43:36;9.70;99.90
41678;DHT22;27364;49.026;8.712;2023-04-01T03:46:02;9.70;99.90
41678;DHT22;27364;49.026;8.712;2023-04-01T03:48:28;9.70;99.90
41678;DHT22;27364;49.026;8.712;2023-04-01T03:50:54;9.70;99.90
41678;DHT22;27364;49.026;8.712;2023-04-01T03:53:20;9.80;99.90
41678;DHT22;27364;49.026;8.712;2023-04-01T03:55:46;9.70;99.90
41678;DHT22;27364;49.026;8.712;2023-04-01T03:58:12;9.80;99.90
41678;DHT22;27364;49.026;8.712;2023-04-01T04:00:37;9.80;99.90
41678;DHT22;27364;49.026;8.712;2023-04-01T04:03:03;9.80;99.90
41678;DHT22;27364;49.026;8.712;2023-04-01T04:05:29;9.80;99.90
41678;DHT22;27364;49.026;8.712;2023-04-01T04:07:54;9.80;99.90
41678;DHT22;27364;49.026;8.712;2023-04-01T04:10:20;9.80;99.90
41678;DHT22;27364;49.026;8.712;2023-04-01T04:12:49;9.80;99.90
41678;DHT22;27364;49.026;8.712;2023-04-01T04:15:15;9.80;99.90
41678;DHT22;27364;49.026;8.712;2023-04-01T04:17:40;9.80;99.90
41678;DHT22;27364;49.026;8.712;2023-04-01T04:20:07;9.70;99.90
41678;DHT22;27364;49.026;8.712;2023-04-01T04:22:33;9.70;99.90
41678;DHT22;27364;49.026;8.712;2023-04-01T04:24:59;9.80;99.90
41678;DHT22;27364;49.026;8.712;2023-04-01T04:27:24;9.70;99.90
41678;DHT22;27364;49.026;8.712;2023-04-01T04:29:50;9.80;99.90
41678;DHT22;27364;49.026;8.712;2023-04-01T04:32:16;9.90;99.90
41678;DHT22;27364;49.026;8.712;2023-04-01T04:34:41;9.80;99.90
41678;DHT22;27364;49.026;8.712;2023-04-01T04:37:07;9.80;99.90
41678;DHT22;27364;49.026;8.712;2023-04-01T04:39:32;9.90;99.90
41678;DHT22;27364;49.026;8.712;2023-04-01T04:41:58;9.90;99.90
41678;DHT22;27364;49.026;8.712;2023-04-01T04:44:23;9.90;99.90
41678;DHT22;27364;49.026;8.712;2023-04-01T04:46:49;9.90;99.90
41678;DHT22;27364;49.026;8.712;2023-04-01T04:49:15;9.90;99.90
41678;DHT22;27364;49.026;8.712;2023-04-01T04:51:40;10.00;99.90
41678;DHT22;27364;49.026;8.712;2023-04-01T04:54:07;9.90;99.90
41678;DHT22;27364;49.026;8.712;2023-04-01T04:56:32;10.00;99.90
41678;DHT22;27364;49.026;8.712;2023-04-01T04:58:58;10.00;99.90
41678;DHT22;27364;49.026;8.712;2023-04-01T05:01:24;10.00;99.90
41678;DHT22;27364;49.026;8.712;2023-04-01T05:03:51;10.00;99.90
41678;DHT22;27364;49.026;8.712;2023-04-01T05:06:18;9.90;99.90
41678;DHT22;27364;49.026;8.712;2023-04-01T05:08:44;10.00;99.90
41678;DHT22;27364;49.026;8.712;2023-04-01T05:11:13;9.90;99.90
41678;DHT22;27364;49.026;8.712;2023-04-01T05:13:39;10.00;99.90
41678;DHT22;27364;49.026;8.712;2023-04-01T05:16:12;10.00;99.90
41678;DHT22;27364;49.026;8.712;2023-04-01T05:18:38;10.00;99.90
41678;DHT22;27364;49.026;8.712;2023-04-01T05:21:04;10.00;99.90
41678;DHT22;27364;49.026;8.712;2023-04-01T05:23:31;10.00;99.90
41678;DHT22;27364;49.026;8.712;2023-04-01T05:25:56;10.10;99.90
41678;DHT22;27364;49.026;8.712;2023-04-01T05:28:22;10.00;99.90
41678;DHT22;27364;49.026;8.712;2023-04-01T05:30:48;10.00;99.90
41678;DHT22;27364;49.026;8.712;2023-04-01T05:33:14;10.00;99.90
41678;DHT22;27364;49.026;8.712;2023-04-01T05:35:40;10.10;99.90
41678;DHT22;27364;49.026;8.712;2023-04-01T05:38:06;10.10;99.90
41678;DHT22;27364;49.026;8.712;2023-04-01T05:40:32;10.10;99.90
41678;DHT22;27364;49.026;8.712;2023-04-01T05:42:59;10.10;99.90
41678;DHT22;27364;49.026;8.712;2023-04-01T05:45:25;10.00;99.90
41678;DHT22;27364;49.026;8.712;2023-04-01T05:47:51;10.10;99.90
41678;DHT22;27364;49.026;8.712;2023-04-01T05:50:17;10.10;99.90
41678;DHT22;27364;49.026;8.712;2023-04-01T05:52:43;10.10;99.90
41678;DHT22;27364;49.026;8.712;2023-04-01T05:55:10;10.00;99.90
41678;DHT22;27364;49.026;8.712;2023-04-01T05:57:36;10.00;99.90
41678;DHT22;27364;49.026;8.712;2023-04-01T06:00:02;10.00;99.90
41678;DHT22;27364;49.026;8.712;2023-04-01T06:02:28;9.90;99.90
41678;DHT22;27364;49.026;8.712;2023-04-01T06:05:21;9.80;99.90
41678;DHT22;27364;49.026;8.712;2023-04-01T06:07:45;9.80;99.90
41678;DHT22;27364;49.026;8.712;2023-04-01T06:10:19;9.70;99.90
41678;DHT22;27364;49.026;8.712;2023-04-01T06:13:06;9.70;99.90
41678;DHT22;27364;49.026;8.712;2023-04-01T06:15:42;9.70;99.90
41678;DHT22;27364;49.026;8.712;2023-04-01T06:21:01;9.60;99.90
41678;DHT22;27364;49.026;8.712;2023-04-01T06:26:26;9.60;99.90
41678;DHT22;27364;49.026;8.712;2023-04-01T06:32:02;9.50;99.90
41678;DHT22;27364;49.026;8.712;2023-04-01T06:37:23;9.50;99.90
41678;DHT22;27364;49.026;8.712;2023-04-01T06:50:33;9.50;99.90
41678;DHT22;27364;49.026;8.712;2023-04-01T06:58:34;9.50;99.90
41678;DHT22;27364;49.026;8.712;2023-04-01T07:01:04;9.50;99.90
41678;DHT22;27364;49.026;8.712;2023-04-01T07:03:51;9.60;99.90
41678;DHT22;27364;49.026;8.712;2023-04-01T07:06:43;9.60;99.90
41678;DHT22;27364;49.026;8.712;2023-04-01T07:09:25;9.60;99.90
41678;DHT22;27364;49.026;8.712;2023-04-01T07:11:54;9.60;99.90
41678;DHT22;27364;49.026;8.712;2023-04-01T07:14:37;9.50;99.90
41678;DHT22;27364;49.026;8.712;2023-04-01T07:17:20;9.60;99.90
41678;DHT22;27364;49.026;8.712;2023-04-01T07:20:16;9.70;99.90
41678;DHT22;27364;49.026;8.712;2023-04-01T07:22:49;9.60;99.90
41678;DHT22;27364;49.026;8.712;2023-04-01T07:27:44;9.60;99.90
41678;DHT22;27364;49.026;8.712;2023-04-01T07:30:22;9.60;99.90
41678;DHT22;27364;49.026;8.712;2023-04-01T07:32:59;9.60;99.90
41678;DHT22;27364;49.026;8.712;2023-04-01T07:35:31;9.60;99.90
41678;DHT22;27364;49.026;8.712;2023-04-01T07:38:08;9.60;99.90
41678;DHT22;27364;49.026;8.712;2023-04-01T07:40:57;9.60;99.90
41678;DHT22;27364;49.026;8.712;2023-04-01T07:46:34;9.50;99.90
41678;DHT22;27364;49.026;8.712;2023-04-01T07:49:06;9.40;99.90
41678;DHT22;27364;49.026;8.712;2023-04-01T07:54:31;9.30;99.90
41678;DHT22;27364;49.026;8.712;2023-04-01T07:57:05;9.30;99.90
41678;DHT22;27364;49.026;8.712;2023-04-01T08:10:29;8.90;99.90
41678;DHT22;27364;49.026;8.712;2023-04-01T08:13:27;8.90;99.90
41678;DHT22;27364;49.026;8.712;2023-04-01T08:16:28;8.80;99.90
41678;DHT22;27364;49.026;8.712;2023-04-01T08:22:03;8.80;99.90
41678;DHT22;27364;49.026;8.712;2023-04-01T08:24:43;8.80;99.90
41678;DHT22;27364;49.026;8.712;2023-04-01T08:27:18;8.80;99.90
41678;DHT22;27364;49.026;8.712;2023-04-01T08:32:42;9.00;99.90
41678;DHT22;27364;49.026;8.712;2023-04-01T08:35:30;9.00;99.90
41678;DHT22;27364;49.026;8.712;2023-04-01T08:38:01;9.10;99.90
41678;DHT22;27364;49.026;8.712;2023-04-01T08:40:58;9.20;99.90
41678;DHT22;27364;49.026;8.712;2023-04-01T08:43:58;9.20;99.90
41678;DHT22;27364;49.026;8.712;2023-04-01T09:00:07;9.80;99.90
41678;DHT22;27364;49.026;8.712;2023-04-01T09:05:32;10.00;99.90
41678;DHT22;27364;49.026;8.712;2023-04-01T09:08:17;10.10;99.90
41678;DHT22;27364;49.026;8.712;2023-04-01T09:10:59;10.20;99.90
41678;DHT22;27364;49.026;8.712;2023-04-01T09:24:35;10.40;99.90
41678;DHT22;27364;49.026;8.712;2023-04-01T09:27:33;10.50;99.90
41678;DHT22;27364;49.026;8.712;2023-04-01T09:35:48;10.30;99.90
41678;DHT22;27364;49.026;8.712;2023-04-01T09:57:54;10.30;99.90
41678;DHT22;27364;49.026;8.712;2023-04-01T10:03:44;10.30;99.90
41678;DHT22;27364;49.026;8.712;2023-04-01T10:14:59;10.50;99.90
41678;DHT22;27364;49.026;8.712;2023-04-01T10:23:22;10.60;99.90
41678;DHT22;27364;49.026;8.712;2023-04-01T10:26:20;10.60;99.90
41678;DHT22;27364;49.026;8.712;2023-04-01T10:29:11;10.50;99.90
41678;DHT22;27364;49.026;8.712;2023-04-01T10:32:23;10.50;99.90
41678;DHT22;27364;49.026;8.712;2023-04-01T10:37:48;10.50;99.90
41678;DHT22;27364;49.026;8.712;2023-04-01T10:54:51;10.60;99.90
41678;DHT22;27364;49.026;8.712;2023-04-01T11:17:05;10.70;99.90
41678;DHT22;27364;49.026;8.712;2023-04-01T11:22:42;10.90;99.90
41678;DHT22;27364;49.026;8.712;2023-04-01T11:25:33;10.90;99.90
41678;DHT22;27364;49.026;8.712;2023-04-01T11:33:44;11.00;99.90
41678;DHT22;27364;49.026;8.712;2023-04-01T11:36:34;11.00;99.90
41678;DHT22;27364;49.026;8.712;2023-04-01T11:39:14;10.90;99.90
41678;DHT22;27364;49.026;8.712;2023-04-01T12:01:42;10.60;99.90
41678;DHT22;27364;49.026;8.712;2023-04-01T12:12:59;10.50;99.90
41678;DHT22;27364;49.026;8.712;2023-04-01T12:18:34;10.30;99.90
41678;DHT22;27364;49.026;8.712;2023-04-01T12:21:35;10.30;99.90
41678;DHT22;27364;49.026;8.712;2023-04-01T12:32:45;10.20;99.90
41678;DHT22;27364;49.026;8.712;2023-04-01T12:44:06;10.30;99.90
41678;DHT22;27364;49.026;8.712;2023-04-01T13:06:21;9.50;99.90
41678;DHT22;27364;49.026;8.712;2023-04-01T13:27:51;9.50;99.90
41678;DHT22;27364;49.026;8.712;2023-04-01T13:32:55;9.50;99.90
41678;DHT22;27364;49.026;8.712;2023-04-01T13:35:52;9.40;99.90
41678;DHT22;27364;49.026;8.712;2023-04-01T13:38:38;9.40;99.90
41678;DHT22;27364;49.026;8.712;2023-04-01T13:41:47;9.40;99.90
41678;DHT22;27364;49.026;8.712;2023-04-01T13:47:12;9.70;99.90
41678;DHT22;27364;49.026;8.712;2023-04-01T13:49:46;9.70;99.90
41678;DHT22;27364;49.026;8.712;2023-04-01T13:57:59;9.40;99.90
41678;DHT22;27364;49.026;8.712;2023-04-01T14:06:23;9.40;99.90
41678;DHT22;27364;49.026;8.712;2023-04-01T14:09:25;9.50;99.90
41678;DHT22;27364;49.026;8.712;2023-04-01T14:12:10;9.60;99.90
41678;DHT22;27364;49.026;8.712;2023-04-01T14:17:50;9.80;99.90
41678;DHT22;27364;49.026;8.712;2023-04-01T14:20:28;9.90;99.90
41678;DHT22;27364;49.026;8.712;2023-04-01T14:25:33;10.20;99.90
41678;DHT22;27364;49.026;8.712;2023-04-01T14:30:53;10.20;99.90
41678;DHT22;27364;49.026;8.712;2023-04-01T14:33:35;10.30;99.90
41678;DHT22;27364;49.026;8.712;2023-04-01T14:47:03;10.50;99.90
41678;DHT22;27364;49.026;8.712;2023-04-01T14:49:36;10.40;99.90
41678;DHT22;27364;49.026;8.712;2023-04-01T14:52:11;10.20;99.90
41678;DHT22;27364;49.026;8.712;2023-04-01T14:54:43;10.20;99.90
41678;DHT22;27364;49.026;8.712;2023-04-01T14:59:40;10.10;99.90
41678;DHT22;27364;49.026;8.712;2023-04-01T15:07:51;10.00;99.90
41678;DHT22;27364;49.026;8.712;2023-04-01T15:13:13;9.90;99.90
41678;DHT22;27364;49.026;8.712;2023-04-01T15:15:57;10.00;99.90
41678;DHT22;27364;49.026;8.712;2023-04-01T15:18:38;10.00;99.90
41678;DHT22;27364;49.026;8.712;2023-04-01T15:23:56;10.10;99.90
41678;DHT22;27364;49.026;8.712;2023-04-01T15:26:47;10.20;99.90
41678;DHT22;27364;49.026;8.712;2023-04-01T15:35:14;10.20;99.90
41678;DHT22;27364;49.026;8.712;2023-04-01T15:37:55;10.20;99.90
41678;DHT22;27364;49.026;8.712;2023-04-01T15:40:31;10.20;99.90
41678;DHT22;27364;49.026;8.712;2023-04-01T15:46:09;10.20;99.90
41678;DHT22;27364;49.026;8.712;2023-04-01T15:57:33;10.50;99.90
41678;DHT22;27364;49.026;8.712;2023-04-01T16:14:31;10.40;99.90
41678;DHT22;27364;49.026;8.712;2023-04-01T16:23:03;10.30;99.90
41678;DHT22;27364;49.026;8.712;2023-04-01T16:25:40;10.30;99.90
41678;DHT22;27364;49.026;8.712;2023-04-01T16:36:28;10.50;99.90
41678;DHT22;27364;49.026;8.712;2023-04-01T16:42:13;10.40;99.90
41678;DHT22;27364;49.026;8.712;2023-04-01T16:48:01;10.50;99.90
41678;DHT22;27364;49.026;8.712;2023-04-01T16:50:53;10.50;99.90
41678;DHT22;27364;49.026;8.712;2023-04-01T16:53:40;10.50;99.90
41678;DHT22;27364;49.026;8.712;2023-04-01T16:56:21;10.50;99.90
41678;DHT22;27364;49.026;8.712;2023-04-01T17:01:30;10.50;99.90
41678;DHT22;27364;49.026;8.712;2023-04-01T17:06:55;10.40;99.90
41678;DHT22;27364;49.026;8.712;2023-04-01T17:09:36;10.40;99.90
41678;DHT22;27364;49.026;8.712;2023-04-01T17:15:22;10.30;99.90
41678;DHT22;27364;49.026;8.712;2023-04-01T17:21:15;10.20;99.90
41678;DHT22;27364;49.026;8.712;2023-04-01T17:23:49;10.10;99.90
41678;DHT22;27364;49.026;8.712;2023-04-01T17:32:06;9.90;99.90
41678;DHT22;27364;49.026;8.712;2023-04-01T17:35:11;9.80;99.90
41678;DHT22;27364;49.026;8.712;2023-04-01T17:40:26;9.70;99.90
41678;DHT22;27364;49.026;8.712;2023-04-01T17:45:49;9.70;99.90
41678;DHT22;27364;49.026;8.712;2023-04-01T17:48:22;9.60;99.90
41678;DHT22;27364;49.026;8.712;2023-04-01T17:51:00;9.60;99.90
41678;DHT22;27364;49.026;8.712;2023-04-01T17:59:37;9.60;99.90
41678;DHT22;27364;49.026;8.712;2023-04-01T18:07:49;9.50;99.90
41678;DHT22;27364;49.026;8.712;2023-04-01T18:10:40;9.50;99.90
41678;DHT22;27364;49.026;8.712;2023-04-01T18:21:23;9.40;99.90
41678;DHT22;27364;49.026;8.712;2023-04-01T18:40:34;9.40;99.90
41678;DHT22;27364;49.026;8.712;2023-04-01T18:43:20;9.40;99.90
41678;DHT22;27364;49.026;8.712;2023-04-01T18:46:01;9.40;99.90
41678;DHT22;27364;49.026;8.712;2023-04-01T18:56:43;9.30;99.90
41678;DHT22;27364;49.026;8.712;2023-04-01T18:59:26;9.40;99.90
41678;DHT22;27364;49.026;8.712;2023-04-01T19:21:29;9.30;99.90
41678;DHT22;27364;49.026;8.712;2023-04-01T19:27:10;9.30;99.90
41678;DHT22;27364;49.026;8.712;2023-04-01T19:36:15;9.30;99.90
41678;DHT22;27364;49.026;8.712;2023-04-01T19:41:31;9.30;99.90
41678;DHT22;27364;49.026;8.712;2023-04-01T19:52:39;9.20;99.90
41678;DHT22;27364;49.026;8.712;2023-04-01T19:55:33;9.20;99.90
41678;DHT22;27364;49.026;8.712;2023-04-01T19:58:04;9.20;99.90
41678;DHT22;27364;49.026;8.712;2023-04-01T20:00:37;9.20;99.90
41678;DHT22;27364;49.026;8.712;2023-04-01T20:03:15;9.20;99.90
41678;DHT22;27364;49.026;8.712;2023-04-01T20:05:55;9.20;99.90
41678;DHT22;27364;49.026;8.712;2023-04-01T20:16:18;9.20;99.90
41678;DHT22;27364;49.026;8.712;2023-04-01T20:18:59;9.20;99.90
41678;DHT22;27364;49.026;8.712;2023-04-01T20:21:46;9.30;99.90
41678;DHT22;27364;49.026;8.712;2023-04-01T20:24:36;9.30;99.90
41678;DHT22;27364;49.026;8.712;2023-04-01T20:43:40;9.50;99.90
41678;DHT22;27364;49.026;8.712;2023-04-01T20:46:20;9.60;99.90
41678;DHT22;27364;49.026;8.712;2023-04-01T20:49:01;9.50;99.90
41678;DHT22;27364;49.026;8.712;2023-04-01T20:51:38;9.50;99.90
41678;DHT22;27364;49.026;8.712;2023-04-01T21:05:31;9.50;99.90
41678;DHT22;27364;49.026;8.712;2023-04-01T21:08:17;9.50;99.90
41678;DHT22;27364;49.026;8.712;2023-04-01T21:11:49;9.50;99.90
41678;DHT22;27364;49.026;8.712;2023-04-01T21:16:47;9.40;99.90
41678;DHT22;27364;49.026;8.712;2023-04-01T21:28:05;9.40;99.90
41678;DHT22;27364;49.026;8.712;2023-04-01T21:30:53;9.40;99.90
41678;DHT22;27364;49.026;8.712;2023-04-01T21:36:03;9.40;99.90
41678;DHT22;27364;49.026;8.712;2023-04-01T21:41:49;9.40;99.90
41678;DHT22;27364;49.026;8.712;2023-04-01T21:50:04;9.40;99.90
41678;DHT22;27364;49.026;8.712;2023-04-01T21:55:46;9.40;99.90
41678;DHT22;27364;49.026;8.712;2023-04-01T22:07:15;9.40;99.90
41678;DHT22;27364;49.026;8.712;2023-04-01T22:09:58;9.40;99.90
41678;DHT22;27364;49.026;8.712;2023-04-01T22:12:37;9.40;99.90
41678;DHT22;27364;49.026;8.712;2023-04-01T22:15:13;9.40;99.90
41678;DHT22;27364;49.026;8.712;2023-04-01T22:18:04;9.40;99.90
41678;DHT22;27364;49.026;8.712;2023-04-01T22:20:42;9.40;99.90
41678;DHT22;27364;49.026;8.712;2023-04-01T22:23:31;9.30;99.90
41678;DHT22;27364;49.026;8.712;2023-04-01T22:29:41;9.40;99.90
41678;DHT22;27364;49.026;8.712;2023-04-01T22:32:08;9.40;99.90
41678;DHT22;27364;49.026;8.712;2023-04-01T22:34:59;9.40;99.90
41678;DHT22;27364;49.026;8.712;2023-04-01T22:37:42;9.40;99.90
41678;DHT22;27364;49.026;8.712;2023-04-01T22:40:38;9.40;99.90
41678;DHT22;27364;49.026;8.712;2023-04-01T22:43:23;9.40;99.90
41678;DHT22;27364;49.026;8.712;2023-04-01T22:48:47;9.50;99.90
41678;DHT22;27364;49.026;8.712;2023-04-01T22:54:04;9.40;99.90
41678;DHT22;27364;49.026;8.712;2023-04-01T22:56:37;9.50;99.90
41678;DHT22;27364;49.026;8.712;2023-04-01T23:00:00;9.50;99.90
41678;DHT22;27364;49.026;8.712;2023-04-01T23:02:12;9.50;99.90
41678;DHT22;27364;49.026;8.712;2023-04-01T23:04:42;9.50;99.90
41678;DHT22;27364;49.026;8.712;2023-04-01T23:10:05;9.50;99.90
41678;DHT22;27364;49.026;8.712;2023-04-01T23:12:32;9.50;99.90
41678;DHT22;27364;49.026;8.712;2023-04-01T23:15:00;9.50;99.90
41678;DHT22;27364;49.026;8.712;2023-04-01T23:17:50;9.40;99.90
41678;DHT22;27364;49.026;8.712;2023-04-01T23:23:25;9.50;99.90
41678;DHT22;27364;49.026;8.712;2023-04-01T23:28:43;9.50;99.90
41678;DHT22;27364;49.026;8.712;2023-04-01T23:31:36;9.40;99.90
41678;DHT22;27364;49.026;8.712;2023-04-01T23:36:40;9.50;99.90
41678;DHT22;27364;49.026;8.712;2023-04-01T23:39:34;9.50;99.90
41678;DHT22;27364;49.026;8.712;2023-04-01T23:42:12;9.50;99.90
41678;DHT22;27364;49.026;8.712;2023-04-01T23:44:39;9.50;99.90
41678;DHT22;27364;49.026;8.712;2023-04-01T23:47:06;9.60;99.90
41678;DHT22;27364;49.026;8.712;2023-04-01T23:49:40;9.50;99.90
41678;DHT22;27364;49.026;8.712;2023-04-01T23:52:30;9.50;99.90
41678;DHT22;27364;49.026;8.712;2023-04-01T23:54:57;9.50;99.90
41678;DHT22;27364;49.026;8.712;2023-04-01T23:57:30;9.50;99.90
